Time,TemperatureF,DewpointF,PressureIn,WindDirection,WindDirectionDegrees,WindSpeedMPH,WindSpeedGustMPH,Humidity,HourlyPrecipIn,Conditions,Clouds,dailyrainin,SoftwareType,DateUTC
2013-06-06 00:01:00,68.9,68.0,29.98,WSW,238,0.0,0.0,97,0.00,,,0.00,weatherlink.com 1.10,2013-06-06 04:01:00,
2013-06-06 00:16:00,69.0,68.0,29.98,SW,215,0.0,0.0,97,0.00,,,0.00,weatherlink.com 1.10,2013-06-06 04:16:00,
2013-06-06 00:31:00,68.0,67.0,29.97,East,97,1.0,4.0,96,0.02,,,0.02,weatherlink.com 1.10,2013-06-06 04:31:00,
2013-06-06 00:46:00,66.7,66.0,29.97,SE,124,1.0,3.0,96,0.06,,,0.06,weatherlink.com 1.10,2013-06-06 04:46:00,
2013-06-06 01:01:00,65.9,65.0,29.96,ESE,113,0.0,2.0,96,0.09,,,0.09,weatherlink.com 1.10,2013-06-06 05:01:00,
2013-06-06 01:16:00,65.4,65.0,29.96,East,86,0.0,2.0,97,0.13,,,0.13,weatherlink.com 1.10,2013-06-06 05:16:00,
2013-06-06 01:46:00,65.1,64.0,29.94,SE,143,0.0,1.0,97,0.12,,,0.17,weatherlink.com 1.10,2013-06-06 05:46:00,
2013-06-06 02:16:00,64.9,64.0,29.93,NE,52,0.0,1.0,97,0.09,,,0.21,weatherlink.com 1.10,2013-06-06 06:16:00,
2013-06-06 02:31:00,64.8,64.0,29.93,NE,52,0.0,0.0,97,0.07,,,0.22,weatherlink.com 1.10,2013-06-06 06:31:00,
2013-06-06 02:46:00,64.9,64.0,29.92,South,172,0.0,0.0,98,0.05,,,0.22,weatherlink.com 1.10,2013-06-06 06:46:00,
2013-06-06 03:01:00,64.9,64.0,29.92,SSW,211,0.0,0.0,98,0.02,,,0.22,weatherlink.com 1.10,2013-06-06 07:01:00,
2013-06-06 03:16:00,65.0,65.0,29.91,SSE,167,0.0,2.0,98,0.01,,,0.22,weatherlink.com 1.10,2013-06-06 07:16:00,
2013-06-06 03:31:00,64.9,64.0,29.91,South,172,0.0,0.0,98,0.00,,,0.22,weatherlink.com 1.10,2013-06-06 07:31:00,
2013-06-06 03:46:00,65.0,65.0,29.90,South,172,0.0,0.0,98,0.01,,,0.23,weatherlink.com 1.10,2013-06-06 07:46:00,
2013-06-06 04:01:00,65.2,65.0,29.90,South,172,0.0,0.0,98,0.02,,,0.24,weatherlink.com 1.10,2013-06-06 08:01:00,
2013-06-06 04:16:00,65.2,65.0,29.90,WSW,238,0.0,2.0,98,0.03,,,0.25,weatherlink.com 1.10,2013-06-06 08:16:00,
2013-06-06 04:31:00,65.4,65.0,29.89,WSW,240,0.0,2.0,98,0.03,,,0.25,weatherlink.com 1.10,2013-06-06 08:31:00,
2013-06-06 04:46:00,65.4,65.0,29.89,West,264,0.0,2.0,98,0.02,,,0.25,weatherlink.com 1.10,2013-06-06 08:46:00,
2013-06-06 05:01:00,65.5,65.0,29.89,SW,232,0.0,3.0,98,0.01,,,0.25,weatherlink.com 1.10,2013-06-06 09:01:00,
2013-06-06 05:16:00,65.4,65.0,29.88,West,259,0.0,2.0,98,0.00,,,0.25,weatherlink.com 1.10,2013-06-06 09:16:00,
2013-06-06 05:46:00,65.2,65.0,29.89,West,266,0.0,2.0,98,0.00,,,0.25,weatherlink.com 1.10,2013-06-06 09:46:00,
2013-06-06 06:01:00,65.2,65.0,29.89,West,260,0.0,2.0,98,0.00,,,0.25,weatherlink.com 1.10,2013-06-06 10:01:00,
2013-06-06 06:16:00,65.3,65.0,29.89,West,260,0.0,2.0,98,0.00,,,0.25,weatherlink.com 1.10,2013-06-06 10:16:00,
2013-06-06 06:31:00,65.4,65.0,29.89,West,260,0.0,0.0,98,0.00,,,0.25,weatherlink.com 1.10,2013-06-06 10:31:00,
2013-06-06 06:46:00,65.5,65.0,29.89,West,264,0.0,2.0,98,0.00,,,0.25,weatherlink.com 1.10,2013-06-06 10:46:00,
2013-06-06 07:01:00,65.6,65.0,29.89,West,264,0.0,0.0,98,0.00,,,0.25,weatherlink.com 1.10,2013-06-06 11:01:00,
2013-06-06 07:16:00,65.7,65.0,29.89,West,264,0.0,1.0,98,0.00,,,0.25,weatherlink.com 1.10,2013-06-06 11:16:00,
2013-06-06 07:31:00,65.9,65.0,29.89,West,264,0.0,2.0,98,0.00,,,0.25,weatherlink.com 1.10,2013-06-06 11:31:00,
2013-06-06 07:46:00,66.2,66.0,29.89,West,264,0.0,0.0,98,0.00,,,0.25,weatherlink.com 1.10,2013-06-06 11:46:00,
2013-06-06 08:01:00,66.8,66.0,29.88,SW,221,0.0,1.0,98,0.00,,,0.25,weatherlink.com 1.10,2013-06-06 12:01:00,
2013-06-06 08:31:00,67.3,67.0,29.89,WSW,243,0.0,2.0,98,0.00,,,0.25,weatherlink.com 1.10,2013-06-06 12:31:00,
2013-06-06 08:46:00,67.4,67.0,29.89,WSW,243,0.0,1.0,98,0.00,,,0.25,weatherlink.com 1.10,2013-06-06 12:46:00,
2013-06-06 09:01:00,67.5,67.0,29.89,WSW,243,0.0,2.0,98,0.00,,,0.25,weatherlink.com 1.10,2013-06-06 13:01:00,
2013-06-06 09:16:00,67.9,67.0,29.88,WSW,243,0.0,1.0,98,0.00,,,0.25,weatherlink.com 1.10,2013-06-06 13:16:00,
2013-06-06 09:31:00,68.2,68.0,29.88,WSW,250,0.0,2.0,98,0.00,,,0.25,weatherlink.com 1.10,2013-06-06 13:31:00,
2013-06-06 09:46:00,69.1,69.0,29.88,WSW,250,0.0,1.0,98,0.00,,,0.25,weatherlink.com 1.10,2013-06-06 13:46:00,
2013-06-06 10:01:00,69.2,69.0,29.89,WSW,250,0.0,0.0,98,0.00,,,0.25,weatherlink.com 1.10,2013-06-06 14:01:00,
2013-06-06 10:17:00,69.3,69.0,29.89,WSW,238,0.0,0.0,98,0.00,,,0.25,weatherlink.com 1.10,2013-06-06 14:17:00,
2013-06-06 10:32:00,69.7,69.0,29.89,WSW,237,0.0,0.0,98,0.00,,,0.25,weatherlink.com 1.10,2013-06-06 14:32:00,
2013-06-06 10:47:00,70.1,70.0,29.88,SW,226,0.0,0.0,98,0.00,,,0.25,weatherlink.com 1.10,2013-06-06 14:47:00,
2013-06-06 11:02:00,70.7,70.0,29.88,SSE,157,0.0,3.0,98,0.00,,,0.25,weatherlink.com 1.10,2013-06-06 15:02:00,
2013-06-06 11:17:00,71.3,71.0,29.89,SSE,157,0.0,2.0,98,0.00,,,0.25,weatherlink.com 1.10,2013-06-06 15:17:00,
2013-06-06 11:32:00,71.3,70.0,29.89,East,86,0.0,3.0,97,0.00,,,0.25,weatherlink.com 1.10,2013-06-06 15:32:00,
2013-06-06 11:47:00,70.9,70.0,29.89,ESE,102,0.0,2.0,96,0.01,,,0.26,weatherlink.com 1.10,2013-06-06 15:47:00,
2013-06-06 12:02:00,71.2,71.0,29.89,ESE,116,0.0,1.0,98,0.04,,,0.29,weatherlink.com 1.10,2013-06-06 16:02:00,
2013-06-06 12:32:00,71.5,71.0,29.89,SSE,162,0.0,3.0,97,0.04,,,0.29,weatherlink.com 1.10,2013-06-06 16:32:00,
2013-06-06 12:47:00,71.3,70.0,29.88,SSE,165,0.0,2.0,97,0.04,,,0.30,weatherlink.com 1.10,2013-06-06 16:47:00,
2013-06-06 13:02:00,71.4,71.0,29.88,ESE,103,0.0,1.0,97,0.01,,,0.30,weatherlink.com 1.10,2013-06-06 17:02:00,
2013-06-06 13:17:00,71.8,71.0,29.87,South,169,0.0,1.0,97,0.01,,,0.30,weatherlink.com 1.10,2013-06-06 17:17:00,
2013-06-06 13:32:00,72.3,71.0,29.86,East,85,0.0,2.0,97,0.01,,,0.30,weatherlink.com 1.10,2013-06-06 17:32:00,
2013-06-06 13:47:00,73.0,72.0,29.85,ESE,116,3.0,3.0,96,0.00,,,0.30,weatherlink.com 1.10,2013-06-06 17:47:00,
2013-06-06 14:17:00,73.1,71.0,29.86,ESE,108,0.0,5.0,93,0.00,,,0.30,weatherlink.com 1.10,2013-06-06 18:17:00,
2013-06-06 14:32:00,72.5,71.0,29.85,ESE,107,0.0,3.0,95,0.00,,,0.30,weatherlink.com 1.10,2013-06-06 18:32:00,
2013-06-06 14:47:00,71.9,70.0,29.85,East,101,2.0,7.0,94,0.03,,,0.33,weatherlink.com 1.10,2013-06-06 18:47:00,
2013-06-06 15:02:00,71.9,71.0,29.85,SE,131,1.0,7.0,95,0.04,,,0.34,weatherlink.com 1.10,2013-06-06 19:02:00,
2013-06-06 15:17:00,72.1,71.0,29.84,ESE,108,1.0,7.0,95,0.04,,,0.34,weatherlink.com 1.10,2013-06-06 19:17:00,
2013-06-06 15:32:00,72.7,71.0,29.84,SE,124,4.0,8.0,94,0.04,,,0.34,weatherlink.com 1.10,2013-06-06 19:32:00,
2013-06-06 15:47:00,73.7,72.0,29.84,SE,136,0.0,6.0,93,0.01,,,0.34,weatherlink.com 1.10,2013-06-06 19:47:00,
2013-06-06 16:02:00,72.9,71.0,29.83,East,98,2.0,5.0,92,0.01,,,0.35,weatherlink.com 1.10,2013-06-06 20:02:00,
2013-06-06 16:17:00,72.1,70.0,29.83,ESE,110,0.0,4.0,94,0.02,,,0.36,weatherlink.com 1.10,2013-06-06 20:17:00,
2013-06-06 16:32:00,72.4,71.0,29.83,ESE,104,0.0,2.0,96,0.02,,,0.36,weatherlink.com 1.10,2013-06-06 20:32:00,
2013-06-06 16:47:00,73.0,72.0,29.82,East,99,0.0,3.0,96,0.02,,,0.36,weatherlink.com 1.10,2013-06-06 20:47:00,
2013-06-06 17:02:00,73.5,71.0,29.82,ESE,114,3.0,5.0,93,0.02,,,0.36,weatherlink.com 1.10,2013-06-06 21:02:00,
2013-06-06 17:17:00,73.7,71.0,29.81,ESE,110,1.0,5.0,91,0.00,,,0.36,weatherlink.com 1.10,2013-06-06 21:17:00,
2013-06-06 17:32:00,74.3,72.0,29.81,ENE,59,4.0,5.0,93,0.00,,,0.36,weatherlink.com 1.10,2013-06-06 21:32:00,
2013-06-06 17:47:00,73.8,71.0,29.81,ESE,104,0.0,5.0,90,0.00,,,0.36,weatherlink.com 1.10,2013-06-06 21:47:00,
2013-06-06 18:02:00,73.0,71.0,29.80,East,83,1.0,5.0,92,0.00,,,0.36,weatherlink.com 1.10,2013-06-06 22:02:00,
2013-06-06 18:17:00,72.9,71.0,29.80,East,89,0.0,3.0,93,0.00,,,0.36,weatherlink.com 1.10,2013-06-06 22:17:00,
2013-06-06 18:32:00,72.7,70.0,29.81,SE,135,4.0,8.0,92,0.02,,,0.38,weatherlink.com 1.10,2013-06-06 22:32:00,
2013-06-06 18:47:00,70.6,68.0,29.80,SE,124,2.0,8.0,92,0.06,,,0.43,weatherlink.com 1.10,2013-06-06 22:47:00,
2013-06-06 19:02:00,69.5,68.0,29.80,SSE,152,0.0,0.0,94,0.08,,,0.44,weatherlink.com 1.10,2013-06-06 23:02:00,
2013-06-06 19:17:00,69.3,68.0,29.80,SSE,152,0.0,0.0,96,0.08,,,0.44,weatherlink.com 1.10,2013-06-06 23:17:00,
2013-06-06 19:32:00,69.2,68.0,29.81,SSE,152,0.0,0.0,96,0.06,,,0.44,weatherlink.com 1.10,2013-06-06 23:32:00,
2013-06-06 19:47:00,69.3,69.0,29.81,SSE,152,0.0,0.0,97,0.02,,,0.44,weatherlink.com 1.10,2013-06-06 23:47:00,
2013-06-06 20:02:00,69.4,69.0,29.80,SSE,152,0.0,0.0,97,0.00,,,0.44,weatherlink.com 1.10,2013-06-07 00:02:00,
2013-06-06 20:17:00,69.4,69.0,29.80,SSE,152,0.0,0.0,97,0.00,,,0.44,weatherlink.com 1.10,2013-06-07 00:17:00,
2013-06-06 20:32:00,69.4,69.0,29.80,SSE,152,0.0,0.0,97,0.00,,,0.44,weatherlink.com 1.10,2013-06-07 00:32:00,
2013-06-06 20:47:00,69.4,69.0,29.80,SSE,152,0.0,0.0,97,0.00,,,0.44,weatherlink.com 1.10,2013-06-07 00:47:00,
2013-06-06 21:02:00,69.3,69.0,29.80,SSE,152,0.0,0.0,97,0.00,,,0.44,weatherlink.com 1.10,2013-06-07 01:02:00,
2013-06-06 21:17:00,69.4,69.0,29.80,SSE,152,0.0,0.0,98,0.00,,,0.44,weatherlink.com 1.10,2013-06-07 01:17:00,
2013-06-06 21:32:00,69.5,69.0,29.80,SSE,152,0.0,0.0,97,0.00,,,0.44,weatherlink.com 1.10,2013-06-07 01:32:00,
2013-06-06 21:48:00,69.4,69.0,29.80,SSE,152,0.0,0.0,98,0.00,,,0.44,weatherlink.com 1.10,2013-06-07 01:48:00,
2013-06-06 22:03:00,69.4,69.0,29.80,North,1,0.0,1.0,98,0.00,,,0.44,weatherlink.com 1.10,2013-06-07 02:03:00,
2013-06-06 22:18:00,69.3,69.0,29.81,NE,39,0.0,4.0,97,0.00,,,0.44,weatherlink.com 1.10,2013-06-07 02:18:00,
2013-06-06 22:33:00,69.0,68.0,29.81,ENE,75,0.0,1.0,97,0.00,,,0.44,weatherlink.com 1.10,2013-06-07 02:33:00,
2013-06-06 22:48:00,68.6,68.0,29.81,ENE,75,0.0,2.0,97,0.00,,,0.44,weatherlink.com 1.10,2013-06-07 02:48:00,
2013-06-06 23:03:00,68.3,68.0,29.81,ENE,75,0.0,0.0,97,0.01,,,0.45,weatherlink.com 1.10,2013-06-07 03:03:00,
2013-06-06 23:18:00,68.1,67.0,29.81,ENE,75,0.0,0.0,97,0.01,,,0.45,weatherlink.com 1.10,2013-06-07 03:18:00,
2013-06-06 23:33:00,68.0,67.0,29.81,ENE,75,0.0,0.0,97,0.02,,,0.46,weatherlink.com 1.10,2013-06-07 03:33:00,
2013-06-06 23:48:00,67.9,67.0,29.80,ENE,75,0.0,0.0,98,0.02,,,0.46,weatherlink.com 1.10,2013-06-07 03:48:00,